Condat sur Vézère

LFDZ · Dordogne, Nouvelle-Aquitaine, 法国

罗盘
风向 的 风向 的 风向 到 风向 200°
风: 6 kt, 2 beaufort

添加一条跑道以查看侧风和逆风信息。

添置 跑道
0 1.000 2.000 3.000 4.000 5.000
OVC 300 ft
METAR LFSL 280200Z AUTO 20006KT 160V260 5000 RA BR OVC003/// ///CB 09/09 Q1015

METAR Condat sur Vézère - LFDZ

Condat sur Vézère是,法国中的小机场。 视场标高为499 ft。 该领域的国际民航组织标志是LFDZ.

这份报告是针对2022年11月28日 03:00, 当地时间在Brive-Souillac进行的。

机场观察

风向为200°,速度为6 kt。 风向在160°和260°之间变化。

可见度为5 km。

有乌云密布在300 ft的高度。 破损或更高的上限为300 ft。

当前天气为雨, 薄雾。 温度为9 °C,阵风为6 °C。 露点为9 °C,相对湿度为100%。 海平面上的气压为1015 hPa (QNH)。

白天

今天,太阳从08:09升起,在17:16降落。 这适用于Condat sur Vézère,世界夏令时可能有所不同。 当地时间与世界标准时间之间的时差为+1 小时。 当前,没有夏令时有效。

公司介绍

我们没有关于这个机场的公司信息。

体会

到Vliegles.nl去找飞行课程,跳伞和其他飞行体验。 浏览页面,了解Condat sur Vézère附近所有可用的活动。 你也可以使用搜索功能来寻找你所在地附近的特定飞行课程、跳伞或其他飞行体验。

乌云

300 ft OVC 乌云密布

温度 & 天气

天气
薄雾
温度 9 °C
露点 9 °C
相对湿度 100%
风寒 6 °C
Kp-index 4 (0-9)

白天

日出
08:08 (4:56)
中午
12:41
日落
17:15

小工具

你想在你的网站上有一个关于Condat sur Vézère的当前航空天气(METAR)的小部件吗?

显示HTML代码

我们和第三方通过cookies跟踪您在我们网站上的互联网行为。如果你继续,我们认为你同意我们的饼干政策